Excellence — KTDP — position and weather

sailwx.info

Track history (hours):
 
Tides and Currents Weather Stations Pressure Air Temp Water Temp Dewpoint Dewpoint Depression Visibility Wind Speed Wind Dir Waves Ship Positions

Excellence

Owner: AJVS, INC, Seattle, WA. More information available from US FCC via Universal Licensing System and Coast Guard Vessel Documentation Center.

Last reported at 2016-May-27 04:33 UTC. Time now 2016-May-27 10:25 UTC.
Position N 44°24' W 124°54'.

Length 112 m; draft 6 m.

Type: Other ship. MMSI: 338162000.

Date/timePositionNaut miles runAvg speedWind from/ knotsBaromVisibWave heightAir tempDewpointWater temp
2016-May-27 04:33N 44°24' W 124°54'5 2.4
2016-May-27 02:18N 44°23' W 125°01'5 2.8
2016-May-27 00:31N 44°19' W 125°05'3 2.9
2016-May-26 23:32N 44°20' W 125°01'5 1.5
2016-May-26 20:32N 44°23' W 124°56'2 2.5
2016-May-26 19:32N 44°23' W 124°53'2 1.7
2016-May-26 18:29N 44°21' W 124°55'4 3.2
2016-May-26 17:09N 44°17' W 124°53'3 3.2
2016-May-26 16:17N 44°17' W 124°57'4 5.6
2016-May-26 15:33N 44°19' W 124°51'3 2.5
2016-May-26 14:33N 44°18' W 124°55'4 3.7
2016-May-26 13:32N 44°21' W 124°59'2 2.1
2016-May-26 12:33N 44°20' W 124°56'3 2.8
2016-May-26 11:19N 44°20' W 125°01'2 2.1
2016-May-26 10:31N 44°19' W 125°01'3 3.2
2016-May-26 09:33N 44°16' W 125°01'3 3.2
2016-May-26 08:33N 44°19' W 125°01'5 5.1
2016-May-26 07:33N 44°24' W 125°01'0 0.2
2016-May-26 06:18N 44°24' W 125°00'6 3.1
2016-May-26 04:31N 44°18' W 124°58'1 1.4
2016-May-26 03:31N 44°18' W 124°56'1 1.1
2016-May-26 02:33N 44°19' W 124°55'3 3.5
2016-May-26 01:33N 44°16' W 124°58'3 2.5
2016-May-26 00:12N 44°15' W 125°02'710.2
2016-May-25 23:33N 44°08' W 125°02'10 9.7
2016-May-25 22:29N 44°18' W 124°58'5 1.5
2016-May-25 19:17N 44°21' W 124°52'1 0.6
2016-May-25 17:14N 44°22' W 124°51'2 2.0
2016-May-25 16:18N 44°20' W 124°53'5 6.0
2016-May-25 15:26N 44°19' W 124°60'3 1.5
2016-May-25 13:30N 44°20' W 124°56'4 3.1
2016-May-25 12:21N 44°22' W 124°52'5 6.3
2016-May-25 11:33N 44°27' W 124°51'6 5.9
2016-May-25 10:30N 44°33' W 124°50'7 7.5
2016-May-25 09:32N 44°41' W 124°49'8 7.8
2016-May-25 08:32N 44°48' W 124°48'8 8.3
2016-May-25 07:33N 44°57' W 124°47'8 8.3
2016-May-25 06:33N 45°05' W 124°47'8 7.9
2016-May-25 05:33N 45°13' W 124°47'8 7.7
2016-May-25 04:33N 45°20' W 124°47'9 9.1
2016-May-25 03:33N 45°30' W 124°47'1111.1
2016-May-25 02:33N 45°41' W 124°48'1111.1
2016-May-25 01:33N 45°52' W 124°48'1111.0
2016-May-25 00:33N 46°03' W 124°46'1111.2
2016-May-24 23:33N 46°13' W 124°41'1010.3
2016-May-24 22:33N 46°23' W 124°38'3 3.4
2016-May-24 21:33N 46°26' W 124°35'1 1.0
2016-May-24 20:33N 46°25' W 124°35'5 5.3
2016-May-24 19:33N 46°22' W 124°41'10 9.9
2016-May-24 18:33N 46°32' W 124°41'8 8.2
2016-May-24 17:33N 46°39' W 124°47'9 8.7
2016-May-24 16:33N 46°46' W 124°53'1111.1
2016-May-24 15:33N 46°56' W 124°60'1211.6
2016-May-24 14:33N 47°08' W 124°60'1311.5
2016-May-24 13:26N 47°21' W 125°03'1111.4
2016-May-24 12:30N 47°31' W 125°05'23 5.9
2016-May-24 08:33N 47°08' W 125°05'8 7.6
2016-May-24 07:33N 47°00' W 125°04'7 7.5
2016-May-24 06:33N 46°53' W 125°03'6 5.6
2016-May-24 05:33N 46°48' W 125°01'3 3.1
2016-May-24 04:33N 46°49' W 124°57'2 1.8
2016-May-24 03:31N 46°49' W 124°54'5 4.8
2016-May-24 02:33N 46°44' W 124°52'0 0.5
2016-May-24 01:34N 46°45' W 124°53'6 6.0
2016-May-24 00:31N 46°50' W 124°57'8 8.2
2016-May-23 23:33N 46°43' W 124°52'1 1.5
2016-May-23 22:33N 46°44' W 124°53'6 6.2
2016-May-23 21:33N 46°44' W 124°44'9 9.1
2016-May-23 20:33N 46°53' W 124°42'1110.6
2016-May-23 19:33N 46°48' W 124°56'7 6.9
2016-May-23 18:33N 46°41' W 124°55'3 3.1
2016-May-23 17:33N 46°39' W 124°52'4 3.9
2016-May-23 16:33N 46°43' W 124°51'8 8.0
2016-May-23 15:33N 46°50' W 124°56'4 4.5
2016-May-23 14:33N 46°46' W 124°53'2 2.3
2016-May-23 13:33N 46°48' W 124°56'8 7.8
2016-May-23 12:33N 46°41' W 124°50'5 5.1
2016-May-23 11:33N 46°38' W 124°44'1 1.2
2016-May-23 10:33N 46°39' W 124°42'5 4.6
2016-May-23 09:33N 46°43' W 124°47'5 5.2
2016-May-23 08:33N 46°45' W 124°53'1 0.9
2016-May-23 07:33N 46°44' W 124°53'4 4.4
2016-May-23 06:33N 46°41' W 124°50'3 3.0
2016-May-23 05:33N 46°38' W 124°48'1 1.5
2016-May-23 04:34N 46°37' W 124°46'2 2.0
2016-May-23 03:33N 46°36' W 124°43'6 6.4
2016-May-23 02:33N 46°41' W 124°49'8 7.6
2016-May-23 01:33N 46°48' W 124°55'1 1.4
2016-May-23 00:33N 46°47' W 124°53'2 2.4
2016-May-22 23:34N 46°49' W 124°56'8 7.9
2016-May-22 22:33N 46°42' W 124°50'2 1.7
2016-May-22 21:33N 46°41' W 124°52'0 0.3
2016-May-22 20:34N 46°41' W 124°51'2 1.9
2016-May-22 19:33N 46°40' W 124°49'6 6.1
2016-May-22 18:33N 46°45' W 124°54'4 3.9
2016-May-22 17:33N 46°41' W 124°53'2 1.8
2016-May-22 16:33N 46°43' W 124°53'3 2.6
2016-May-22 15:33N 46°46' W 124°53'7 6.5
2016-May-22 14:33N 46°40' W 124°49'4 4.0
2016-May-22 13:33N 46°37' W 124°45'6 6.4
2016-May-22 12:33N 46°34' W 124°36'4 3.6
2016-May-22 11:33N 46°31' W 124°34'2 1.5
2016-May-22 10:33N 46°32' W 124°31'3 2.5
2016-May-22 09:33N 46°33' W 124°34'5 4.9
2016-May-22 08:33N 46°31' W 124°40'5 5.0
2016-May-22 07:33N 46°29' W 124°47'6 5.9
2016-May-22 06:33N 46°26' W 124°54'6 5.9
2016-May-22 05:33N 46°20' W 124°58'8 7.8
2016-May-22 04:33N 46°13' W 124°58'1010.4
2016-May-22 03:33N 46°02' W 124°58'1111.1
2016-May-22 02:33N 45°51' W 124°56'1111.2
2016-May-22 01:33N 45°40' W 124°52'1111.1
2016-May-22 00:33N 45°30' W 124°48'2 2.0
2016-May-21 23:33N 45°28' W 124°48'1 0.5
2016-May-21 22:34N 45°27' W 124°49'2 1.8
2016-May-21 21:33N 45°29' W 124°50'9 9.1
2016-May-21 20:33N 45°26' W 124°37'1110.7
2016-May-21 19:33N 45°18' W 124°27'4 4.1
2016-May-21 18:33N 45°15' W 124°23'6 5.7
2016-May-21 17:33N 45°11' W 124°28'10 6.9
2016-May-21 16:05N 45°01' W 124°29'1 2.2
2016-May-21 15:32N 45°00' W 124°29'6 4.6
2016-May-21 14:16N 45°06' W 124°28'6 8.2
2016-May-21 13:33N 45°00' W 124°31'9 8.5
2016-May-21 12:31N 44°52' W 124°36'1110.3
2016-May-21 11:29N 44°42' W 124°36'  
2016-May-19 04:30N 44°02' W 125°02'2 1.3
2016-May-19 03:04N 44°03' W 125°02'1 0.6
2016-May-19 01:22N 44°04' W 125°02'10 8.8
2016-May-19 00:12N 44°15' W 125°02'5 2.6
2016-May-18 22:27N 44°17' W 124°56'2 2.2
2016-May-18 21:23N 44°19' W 124°54'3 2.9
2016-May-18 20:12N 44°22' W 124°52'1 1.0
2016-May-18 19:33N 44°21' W 124°51'2 1.8
2016-May-18 18:30N 44°20' W 124°50'3 2.9
2016-May-18 17:33N 44°18' W 124°53'1 0.7
2016-May-18 16:34N 44°18' W 124°54'1 0.8
2016-May-18 15:33N 44°17' W 124°55'3 3.0
2016-May-18 14:33N 44°20' W 124°53'7 7.0
2016-May-18 13:33N 44°15' W 124°60'6 5.6
2016-May-18 12:33N 44°19' W 124°54'5 5.1
2016-May-18 11:33N 44°23' W 124°49'2 2.3
2016-May-18 10:33N 44°21' W 124°51'4 3.7
2016-May-18 09:33N 44°25' W 124°52'4 3.4
2016-May-18 08:30N 44°28' W 124°52'3 3.1
2016-May-18 07:33N 44°25' W 124°53'3 3.0
2016-May-18 06:33N 44°22' W 124°53'3 3.2
2016-May-18 05:33N 44°19' W 124°53'3 2.9
2016-May-18 04:33N 44°17' W 124°56'3 2.6
2016-May-18 03:33N 44°19' W 124°54'5 4.9
2016-May-18 02:32N 44°23' W 124°49'7 6.9
2016-May-18 01:33N 44°17' W 124°54'9 9.1
2016-May-18 00:33N 44°25' W 124°48'8 7.8
2016-May-17 23:33N 44°33' W 124°47'9 9.1
2016-May-17 22:33N 44°41' W 124°52'1212.1
2016-May-17 21:33N 44°53' W 124°47'1313.4
2016-May-17 20:33N 45°06' W 124°45'1413.6
2016-May-17 19:33N 45°20' W 124°45'1413.5
2016-May-17 18:33N 45°33' W 124°45'1413.5
2016-May-17 17:34N 45°47' W 124°44'4 4.1
2016-May-17 16:34N 45°51' W 124°43'1 0.6
2016-May-17 15:34N 45°50' W 124°43'9 9.4
2016-May-17 14:34N 45°41' W 124°41'7 7.3
2016-May-17 13:34N 45°48' W 124°44'4 4.0
2016-May-17 12:33N 45°52' W 124°43'4 3.9
2016-May-17 11:34N 45°48' W 124°43'3 3.5
2016-May-17 10:33N 45°45' W 124°42'3 3.1
2016-May-17 09:33N 45°42' W 124°42'2 2.2
2016-May-17 08:34N 45°42' W 124°44'3 2.9
2016-May-17 07:33N 45°45' W 124°45'4 3.6
2016-May-17 06:33N 45°49' W 124°45'4 3.5
2016-May-17 05:34N 45°52' W 124°45'3 3.0
2016-May-17 04:33N 45°55' W 124°43'  
Track history (hours):
 
Tides and Currents Weather Stations Pressure Air Temp Water Temp Dewpoint Dewpoint Depression Visibility Wind Speed Wind Dir Waves Ship Positions

Excellence

Owner: AJVS, INC, Seattle, WA. More information available from US FCC via Universal Licensing System and Coast Guard Vessel Documentation Center.

Last reported at 2016-May-27 04:33 UTC. Time now 2016-May-27 10:25 UTC.
Position N 44°24' W 124°54'.

Length 112 m; draft 6 m.

Type: Other ship. MMSI: 338162000.

Date/timePositionNaut miles runAvg speedWind from/ knotsBaromVisibWave heightAir tempDewpointWater temp
2016-May-27 04:33N 44°24' W 124°54'5 2.4
2016-May-27 02:18N 44°23' W 125°01'5 2.8
2016-May-27 00:31N 44°19' W 125°05'3 2.9
2016-May-26 23:32N 44°20' W 125°01'5 1.5
2016-May-26 20:32N 44°23' W 124°56'2 2.5
2016-May-26 19:32N 44°23' W 124°53'2 1.7
2016-May-26 18:29N 44°21' W 124°55'4 3.2
2016-May-26 17:09N 44°17' W 124°53'3 3.2
2016-May-26 16:17N 44°17' W 124°57'4 5.6
2016-May-26 15:33N 44°19' W 124°51'3 2.5
2016-May-26 14:33N 44°18' W 124°55'4 3.7
2016-May-26 13:32N 44°21' W 124°59'2 2.1
2016-May-26 12:33N 44°20' W 124°56'3 2.8
2016-May-26 11:19N 44°20' W 125°01'2 2.1
2016-May-26 10:31N 44°19' W 125°01'3 3.2
2016-May-26 09:33N 44°16' W 125°01'3 3.2
2016-May-26 08:33N 44°19' W 125°01'5 5.1
2016-May-26 07:33N 44°24' W 125°01'0 0.2
2016-May-26 06:18N 44°24' W 125°00'6 3.1
2016-May-26 04:31N 44°18' W 124°58'1 1.4
2016-May-26 03:31N 44°18' W 124°56'1 1.1
2016-May-26 02:33N 44°19' W 124°55'3 3.5
2016-May-26 01:33N 44°16' W 124°58'3 2.5
2016-May-26 00:12N 44°15' W 125°02'710.2
2016-May-25 23:33N 44°08' W 125°02'10 9.7
2016-May-25 22:29N 44°18' W 124°58'5 1.5
2016-May-25 19:17N 44°21' W 124°52'1 0.6
2016-May-25 17:14N 44°22' W 124°51'2 2.0
2016-May-25 16:18N 44°20' W 124°53'5 6.0
2016-May-25 15:26N 44°19' W 124°60'3 1.5
2016-May-25 13:30N 44°20' W 124°56'4 3.1
2016-May-25 12:21N 44°22' W 124°52'5 6.3
2016-May-25 11:33N 44°27' W 124°51'6 5.9
2016-May-25 10:30N 44°33' W 124°50'7 7.5
2016-May-25 09:32N 44°41' W 124°49'8 7.8
2016-May-25 08:32N 44°48' W 124°48'8 8.3
2016-May-25 07:33N 44°57' W 124°47'8 8.3
2016-May-25 06:33N 45°05' W 124°47'8 7.9
2016-May-25 05:33N 45°13' W 124°47'8 7.7
2016-May-25 04:33N 45°20' W 124°47'9 9.1
2016-May-25 03:33N 45°30' W 124°47'1111.1
2016-May-25 02:33N 45°41' W 124°48'1111.1
2016-May-25 01:33N 45°52' W 124°48'1111.0
2016-May-25 00:33N 46°03' W 124°46'1111.2
2016-May-24 23:33N 46°13' W 124°41'1010.3
2016-May-24 22:33N 46°23' W 124°38'3 3.4
2016-May-24 21:33N 46°26' W 124°35'1 1.0
2016-May-24 20:33N 46°25' W 124°35'5 5.3
2016-May-24 19:33N 46°22' W 124°41'10 9.9
2016-May-24 18:33N 46°32' W 124°41'8 8.2
2016-May-24 17:33N 46°39' W 124°47'9 8.7
2016-May-24 16:33N 46°46' W 124°53'1111.1
2016-May-24 15:33N 46°56' W 124°60'1211.6
2016-May-24 14:33N 47°08' W 124°60'1311.5
2016-May-24 13:26N 47°21' W 125°03'1111.4
2016-May-24 12:30N 47°31' W 125°05'23 5.9
2016-May-24 08:33N 47°08' W 125°05'8 7.6
2016-May-24 07:33N 47°00' W 125°04'7 7.5
2016-May-24 06:33N 46°53' W 125°03'6 5.6
2016-May-24 05:33N 46°48' W 125°01'3 3.1
2016-May-24 04:33N 46°49' W 124°57'2 1.8
2016-May-24 03:31N 46°49' W 124°54'5 4.8
2016-May-24 02:33N 46°44' W 124°52'0 0.5
2016-May-24 01:34N 46°45' W 124°53'6 6.0
2016-May-24 00:31N 46°50' W 124°57'8 8.2
2016-May-23 23:33N 46°43' W 124°52'1 1.5
2016-May-23 22:33N 46°44' W 124°53'6 6.2
2016-May-23 21:33N 46°44' W 124°44'9 9.1
2016-May-23 20:33N 46°53' W 124°42'1110.6
2016-May-23 19:33N 46°48' W 124°56'7 6.9
2016-May-23 18:33N 46°41' W 124°55'3 3.1
2016-May-23 17:33N 46°39' W 124°52'4 3.9
2016-May-23 16:33N 46°43' W 124°51'8 8.0
2016-May-23 15:33N 46°50' W 124°56'4 4.5
2016-May-23 14:33N 46°46' W 124°53'2 2.3
2016-May-23 13:33N 46°48' W 124°56'8 7.8
2016-May-23 12:33N 46°41' W 124°50'5 5.1
2016-May-23 11:33N 46°38' W 124°44'1 1.2
2016-May-23 10:33N 46°39' W 124°42'5 4.6
2016-May-23 09:33N 46°43' W 124°47'5 5.2
2016-May-23 08:33N 46°45' W 124°53'1 0.9
2016-May-23 07:33N 46°44' W 124°53'4 4.4
2016-May-23 06:33N 46°41' W 124°50'3 3.0
2016-May-23 05:33N 46°38' W 124°48'1 1.5
2016-May-23 04:34N 46°37' W 124°46'2 2.0
2016-May-23 03:33N 46°36' W 124°43'6 6.4
2016-May-23 02:33N 46°41' W 124°49'8 7.6
2016-May-23 01:33N 46°48' W 124°55'1 1.4
2016-May-23 00:33N 46°47' W 124°53'2 2.4
2016-May-22 23:34N 46°49' W 124°56'8 7.9
2016-May-22 22:33N 46°42' W 124°50'2 1.7
2016-May-22 21:33N 46°41' W 124°52'0 0.3
2016-May-22 20:34N 46°41' W 124°51'2 1.9
2016-May-22 19:33N 46°40' W 124°49'6 6.1
2016-May-22 18:33N 46°45' W 124°54'4 3.9
2016-May-22 17:33N 46°41' W 124°53'2 1.8
2016-May-22 16:33N 46°43' W 124°53'3 2.6
2016-May-22 15:33N 46°46' W 124°53'7 6.5
2016-May-22 14:33N 46°40' W 124°49'4 4.0
2016-May-22 13:33N 46°37' W 124°45'6 6.4
2016-May-22 12:33N 46°34' W 124°36'4 3.6
2016-May-22 11:33N 46°31' W 124°34'2 1.5
2016-May-22 10:33N 46°32' W 124°31'3 2.5
2016-May-22 09:33N 46°33' W 124°34'5 4.9
2016-May-22 08:33N 46°31' W 124°40'5 5.0
2016-May-22 07:33N 46°29' W 124°47'6 5.9
2016-May-22 06:33N 46°26' W 124°54'6 5.9
2016-May-22 05:33N 46°20' W 124°58'8 7.8
2016-May-22 04:33N 46°13' W 124°58'1010.4
2016-May-22 03:33N 46°02' W 124°58'1111.1
2016-May-22 02:33N 45°51' W 124°56'1111.2
2016-May-22 01:33N 45°40' W 124°52'1111.1
2016-May-22 00:33N 45°30' W 124°48'2 2.0
2016-May-21 23:33N 45°28' W 124°48'1 0.5
2016-May-21 22:34N 45°27' W 124°49'2 1.8
2016-May-21 21:33N 45°29' W 124°50'9 9.1
2016-May-21 20:33N 45°26' W 124°37'1110.7
2016-May-21 19:33N 45°18' W 124°27'4 4.1
2016-May-21 18:33N 45°15' W 124°23'6 5.7
2016-May-21 17:33N 45°11' W 124°28'10 6.9
2016-May-21 16:05N 45°01' W 124°29'1 2.2
2016-May-21 15:32N 45°00' W 124°29'6 4.6
2016-May-21 14:16N 45°06' W 124°28'6 8.2
2016-May-21 13:33N 45°00' W 124°31'9 8.5
2016-May-21 12:31N 44°52' W 124°36'1110.3
2016-May-21 11:29N 44°42' W 124°36'  
2016-May-19 04:30N 44°02' W 125°02'2 1.3
2016-May-19 03:04N 44°03' W 125°02'1 0.6
2016-May-19 01:22N 44°04' W 125°02'10 8.8
2016-May-19 00:12N 44°15' W 125°02'5 2.6
2016-May-18 22:27N 44°17' W 124°56'2 2.2
2016-May-18 21:23N 44°19' W 124°54'3 2.9
2016-May-18 20:12N 44°22' W 124°52'1 1.0
2016-May-18 19:33N 44°21' W 124°51'2 1.8
2016-May-18 18:30N 44°20' W 124°50'3 2.9
2016-May-18 17:33N 44°18' W 124°53'1 0.7
2016-May-18 16:34N 44°18' W 124°54'1 0.8
2016-May-18 15:33N 44°17' W 124°55'3 3.0
2016-May-18 14:33N 44°20' W 124°53'7 7.0
2016-May-18 13:33N 44°15' W 124°60'6 5.6
2016-May-18 12:33N 44°19' W 124°54'5 5.1
2016-May-18 11:33N 44°23' W 124°49'2 2.3
2016-May-18 10:33N 44°21' W 124°51'4 3.7
2016-May-18 09:33N 44°25' W 124°52'4 3.4
2016-May-18 08:30N 44°28' W 124°52'3 3.1
2016-May-18 07:33N 44°25' W 124°53'3 3.0
2016-May-18 06:33N 44°22' W 124°53'3 3.2
2016-May-18 05:33N 44°19' W 124°53'3 2.9
2016-May-18 04:33N 44°17' W 124°56'3 2.6
2016-May-18 03:33N 44°19' W 124°54'5 4.9
2016-May-18 02:32N 44°23' W 124°49'7 6.9
2016-May-18 01:33N 44°17' W 124°54'9 9.1
2016-May-18 00:33N 44°25' W 124°48'8 7.8
2016-May-17 23:33N 44°33' W 124°47'9 9.1
2016-May-17 22:33N 44°41' W 124°52'1212.1
2016-May-17 21:33N 44°53' W 124°47'1313.4
2016-May-17 20:33N 45°06' W 124°45'1413.6
2016-May-17 19:33N 45°20' W 124°45'1413.5
2016-May-17 18:33N 45°33' W 124°45'1413.5
2016-May-17 17:34N 45°47' W 124°44'4 4.1
2016-May-17 16:34N 45°51' W 124°43'1 0.6
2016-May-17 15:34N 45°50' W 124°43'9 9.4
2016-May-17 14:34N 45°41' W 124°41'7 7.3
2016-May-17 13:34N 45°48' W 124°44'4 4.0
2016-May-17 12:33N 45°52' W 124°43'4 3.9
2016-May-17 11:34N 45°48' W 124°43'3 3.5
2016-May-17 10:33N 45°45' W 124°42'3 3.1
2016-May-17 09:33N 45°42' W 124°42'2 2.2
2016-May-17 08:34N 45°42' W 124°44'3 2.9
2016-May-17 07:33N 45°45' W 124°45'4 3.6
2016-May-17 06:33N 45°49' W 124°45'4 3.5
2016-May-17 05:34N 45°52' W 124°45'3 3.0
2016-May-17 04:33N 45°55' W 124°43'  

Dump ship's entire track history